sensor_id;sensor_type;location;lat;lon;timestamp;P1;durP1;ratioP1;P2;durP2;ratioP2
69207;SDS011;56321;47.662;8.878;2022-08-19T00:00:17;8.93;;;4.67;;
69207;SDS011;56321;47.662;8.878;2022-08-19T00:02:43;8.73;;;5.10;;
69207;SDS011;56321;47.662;8.878;2022-08-19T00:05:09;8.33;;;4.60;;
69207;SDS011;56321;47.662;8.878;2022-08-19T00:07:35;8.18;;;4.25;;
69207;SDS011;56321;47.662;8.878;2022-08-19T00:10:02;8.98;;;4.70;;
69207;SDS011;56321;47.662;8.878;2022-08-19T00:12:29;8.60;;;4.87;;
69207;SDS011;56321;47.662;8.878;2022-08-19T00:14:54;8.50;;;4.43;;
69207;SDS011;56321;47.662;8.878;2022-08-19T00:17:20;7.80;;;4.27;;
69207;SDS011;56321;47.662;8.878;2022-08-19T00:19:45;8.33;;;4.60;;
69207;SDS011;56321;47.662;8.878;2022-08-19T00:22:11;8.70;;;4.80;;
69207;SDS011;56321;47.662;8.878;2022-08-19T00:24:36;8.40;;;4.60;;
69207;SDS011;56321;47.662;8.878;2022-08-19T00:27:03;8.02;;;4.47;;
69207;SDS011;56321;47.662;8.878;2022-08-19T00:29:28;7.80;;;4.10;;
69207;SDS011;56321;47.662;8.878;2022-08-19T00:31:54;8.93;;;4.80;;
69207;SDS011;56321;47.662;8.878;2022-08-19T00:34:21;8.35;;;4.80;;
69207;SDS011;56321;47.662;8.878;2022-08-19T00:36:47;8.60;;;4.63;;
69207;SDS011;56321;47.662;8.878;2022-08-19T00:39:13;8.67;;;4.70;;
69207;SDS011;56321;47.662;8.878;2022-08-19T00:41:40;9.20;;;5.22;;
69207;SDS011;56321;47.662;8.878;2022-08-19T00:44:08;9.20;;;5.32;;
69207;SDS011;56321;47.662;8.878;2022-08-19T00:46:40;8.18;;;4.55;;
69207;SDS011;56321;47.662;8.878;2022-08-19T00:49:11;9.02;;;4.78;;
69207;SDS011;56321;47.662;8.878;2022-08-19T00:51:39;8.80;;;4.93;;
69207;SDS011;56321;47.662;8.878;2022-08-19T00:54:06;9.23;;;5.20;;
69207;SDS011;56321;47.662;8.878;2022-08-19T00:56:32;8.80;;;4.72;;
69207;SDS011;56321;47.662;8.878;2022-08-19T00:58:58;9.50;;;4.90;;
69207;SDS011;56321;47.662;8.878;2022-08-19T01:01:24;9.10;;;5.10;;
69207;SDS011;56321;47.662;8.878;2022-08-19T01:03:50;9.35;;;5.07;;
69207;SDS011;56321;47.662;8.878;2022-08-19T01:06:16;9.73;;;5.10;;
69207;SDS011;56321;47.662;8.878;2022-08-19T01:08:41;9.93;;;5.47;;
69207;SDS011;56321;47.662;8.878;2022-08-19T01:11:07;10.23;;;5.17;;
69207;SDS011;56321;47.662;8.878;2022-08-19T01:13:33;9.95;;;5.68;;
69207;SDS011;56321;47.662;8.878;2022-08-19T01:16:07;10.07;;;6.13;;
69207;SDS011;56321;47.662;8.878;2022-08-19T01:18:38;10.05;;;6.10;;
69207;SDS011;56321;47.662;8.878;2022-08-19T01:21:10;11.27;;;5.87;;
69207;SDS011;56321;47.662;8.878;2022-08-19T01:23:43;10.88;;;5.47;;
69207;SDS011;56321;47.662;8.878;2022-08-19T01:26:11;9.75;;;5.55;;
69207;SDS011;56321;47.662;8.878;2022-08-19T01:28:39;10.45;;;6.20;;
69207;SDS011;56321;47.662;8.878;2022-08-19T01:31:07;10.43;;;5.85;;
69207;SDS011;56321;47.662;8.878;2022-08-19T01:33:35;10.37;;;6.20;;
69207;SDS011;56321;47.662;8.878;2022-08-19T01:36:05;12.33;;;6.83;;
69207;SDS011;56321;47.662;8.878;2022-08-19T01:38:35;12.10;;;6.60;;
69207;SDS011;56321;47.662;8.878;2022-08-19T01:41:02;10.95;;;6.00;;
69207;SDS011;56321;47.662;8.878;2022-08-19T01:43:27;10.87;;;6.23;;
69207;SDS011;56321;47.662;8.878;2022-08-19T01:45:53;11.73;;;6.57;;
69207;SDS011;56321;47.662;8.878;2022-08-19T01:48:19;10.77;;;6.60;;
69207;SDS011;56321;47.662;8.878;2022-08-19T01:50:44;11.13;;;6.80;;
69207;SDS011;56321;47.662;8.878;2022-08-19T01:53:10;11.45;;;6.88;;
69207;SDS011;56321;47.662;8.878;2022-08-19T01:55:37;11.33;;;6.77;;
69207;SDS011;56321;47.662;8.878;2022-08-19T01:58:06;12.40;;;7.20;;
69207;SDS011;56321;47.662;8.878;2022-08-19T02:00:35;14.20;;;7.00;;
69207;SDS011;56321;47.662;8.878;2022-08-19T02:03:02;11.88;;;6.78;;
69207;SDS011;56321;47.662;8.878;2022-08-19T02:05:27;10.87;;;6.20;;
69207;SDS011;56321;47.662;8.878;2022-08-19T02:07:54;11.98;;;7.40;;
69207;SDS011;56321;47.662;8.878;2022-08-19T02:10:21;12.15;;;6.82;;
69207;SDS011;56321;47.662;8.878;2022-08-19T02:12:47;11.50;;;6.80;;
69207;SDS011;56321;47.662;8.878;2022-08-19T02:15:14;11.23;;;6.80;;
69207;SDS011;56321;47.662;8.878;2022-08-19T02:17:40;12.25;;;7.32;;
69207;SDS011;56321;47.662;8.878;2022-08-19T02:20:06;12.90;;;7.40;;
69207;SDS011;56321;47.662;8.878;2022-08-19T02:22:32;13.80;;;7.75;;
69207;SDS011;56321;47.662;8.878;2022-08-19T02:24:58;13.63;;;8.80;;
69207;SDS011;56321;47.662;8.878;2022-08-19T02:27:23;14.20;;;8.90;;
69207;SDS011;56321;47.662;8.878;2022-08-19T02:29:50;15.13;;;9.10;;
69207;SDS011;56321;47.662;8.878;2022-08-19T02:32:16;17.88;;;9.30;;
69207;SDS011;56321;47.662;8.878;2022-08-19T02:34:42;15.53;;;8.97;;
69207;SDS011;56321;47.662;8.878;2022-08-19T02:37:07;17.23;;;10.45;;
69207;SDS011;56321;47.662;8.878;2022-08-19T02:39:56;14.20;;;8.85;;
69207;SDS011;56321;47.662;8.878;2022-08-19T02:42:21;17.17;;;9.97;;
69207;SDS011;56321;47.662;8.878;2022-08-19T02:44:47;16.03;;;9.73;;
69207;SDS011;56321;47.662;8.878;2022-08-19T02:47:12;16.60;;;10.00;;
69207;SDS011;56321;47.662;8.878;2022-08-19T02:49:40;15.77;;;9.32;;
69207;SDS011;56321;47.662;8.878;2022-08-19T02:52:05;15.03;;;9.60;;
69207;SDS011;56321;47.662;8.878;2022-08-19T02:54:31;17.35;;;10.85;;
69207;SDS011;56321;47.662;8.878;2022-08-19T02:56:56;16.20;;;10.43;;
69207;SDS011;56321;47.662;8.878;2022-08-19T02:59:21;16.00;;;9.83;;
69207;SDS011;56321;47.662;8.878;2022-08-19T03:01:47;15.87;;;10.00;;
69207;SDS011;56321;47.662;8.878;2022-08-19T03:04:13;16.70;;;9.87;;
69207;SDS011;56321;47.662;8.878;2022-08-19T03:06:43;16.35;;;10.65;;
69207;SDS011;56321;47.662;8.878;2022-08-19T03:09:10;17.00;;;10.38;;
69207;SDS011;56321;47.662;8.878;2022-08-19T03:11:36;16.58;;;10.80;;
69207;SDS011;56321;47.662;8.878;2022-08-19T03:14:03;15.20;;;9.82;;
69207;SDS011;56321;47.662;8.878;2022-08-19T03:16:31;16.53;;;10.53;;
69207;SDS011;56321;47.662;8.878;2022-08-19T03:18:58;17.27;;;10.98;;
69207;SDS011;56321;47.662;8.878;2022-08-19T03:21:28;19.17;;;11.65;;
69207;SDS011;56321;47.662;8.878;2022-08-19T03:23:56;16.92;;;10.27;;
69207;SDS011;56321;47.662;8.878;2022-08-19T03:26:23;19.05;;;10.57;;
69207;SDS011;56321;47.662;8.878;2022-08-19T03:28:49;16.10;;;10.47;;
69207;SDS011;56321;47.662;8.878;2022-08-19T03:31:15;18.27;;;10.57;;
69207;SDS011;56321;47.662;8.878;2022-08-19T03:33:42;17.38;;;10.68;;
69207;SDS011;56321;47.662;8.878;2022-08-19T03:36:09;14.77;;;9.65;;
69207;SDS011;56321;47.662;8.878;2022-08-19T03:38:42;20.63;;;11.87;;
69207;SDS011;56321;47.662;8.878;2022-08-19T03:41:11;18.15;;;10.85;;
69207;SDS011;56321;47.662;8.878;2022-08-19T03:43:40;17.58;;;10.82;;
69207;SDS011;56321;47.662;8.878;2022-08-19T03:46:11;18.20;;;11.32;;
69207;SDS011;56321;47.662;8.878;2022-08-19T03:48:38;18.67;;;11.38;;
69207;SDS011;56321;47.662;8.878;2022-08-19T03:51:05;17.43;;;10.70;;
69207;SDS011;56321;47.662;8.878;2022-08-19T03:53:33;18.52;;;11.25;;
69207;SDS011;56321;47.662;8.878;2022-08-19T03:55:59;19.65;;;12.15;;
69207;SDS011;56321;47.662;8.878;2022-08-19T03:58:26;17.83;;;11.40;;
69207;SDS011;56321;47.662;8.878;2022-08-19T04:00:54;19.13;;;11.70;;
69207;SDS011;56321;47.662;8.878;2022-08-19T04:03:25;19.40;;;12.23;;
69207;SDS011;56321;47.662;8.878;2022-08-19T04:05:51;17.10;;;10.70;;
69207;SDS011;56321;47.662;8.878;2022-08-19T04:08:18;17.63;;;11.27;;
69207;SDS011;56321;47.662;8.878;2022-08-19T04:10:45;18.60;;;11.65;;
69207;SDS011;56321;47.662;8.878;2022-08-19T04:13:12;16.88;;;10.55;;
69207;SDS011;56321;47.662;8.878;2022-08-19T04:15:40;17.80;;;11.10;;
69207;SDS011;56321;47.662;8.878;2022-08-19T04:18:07;17.05;;;10.48;;
69207;SDS011;56321;47.662;8.878;2022-08-19T04:20:40;19.40;;;12.50;;
69207;SDS011;56321;47.662;8.878;2022-08-19T04:23:12;17.88;;;11.45;;
69207;SDS011;56321;47.662;8.878;2022-08-19T04:25:39;16.63;;;10.25;;
69207;SDS011;56321;47.662;8.878;2022-08-19T04:28:07;16.23;;;10.60;;
69207;SDS011;56321;47.662;8.878;2022-08-19T04:30:48;19.27;;;12.02;;
69207;SDS011;56321;47.662;8.878;2022-08-19T04:33:15;18.27;;;12.02;;
69207;SDS011;56321;47.662;8.878;2022-08-19T04:35:43;15.15;;;9.60;;
69207;SDS011;56321;47.662;8.878;2022-08-19T04:38:12;18.42;;;11.43;;
69207;SDS011;56321;47.662;8.878;2022-08-19T04:40:42;17.43;;;11.47;;
69207;SDS011;56321;47.662;8.878;2022-08-19T04:43:29;18.13;;;11.02;;
69207;SDS011;56321;47.662;8.878;2022-08-19T04:45:55;20.67;;;12.10;;
69207;SDS011;56321;47.662;8.878;2022-08-19T04:48:21;18.40;;;11.40;;
69207;SDS011;56321;47.662;8.878;2022-08-19T04:50:51;19.83;;;12.30;;
69207;SDS011;56321;47.662;8.878;2022-08-19T04:53:22;19.30;;;11.20;;
69207;SDS011;56321;47.662;8.878;2022-08-19T04:55:53;17.73;;;10.90;;
69207;SDS011;56321;47.662;8.878;2022-08-19T04:58:20;17.20;;;10.57;;
69207;SDS011;56321;47.662;8.878;2022-08-19T05:00:45;18.00;;;11.10;;
69207;SDS011;56321;47.662;8.878;2022-08-19T05:03:10;18.07;;;11.70;;
69207;SDS011;56321;47.662;8.878;2022-08-19T05:05:40;18.23;;;11.73;;
69207;SDS011;56321;47.662;8.878;2022-08-19T05:08:06;17.90;;;11.13;;
69207;SDS011;56321;47.662;8.878;2022-08-19T05:10:34;19.80;;;12.23;;
69207;SDS011;56321;47.662;8.878;2022-08-19T05:13:01;17.93;;;10.60;;
69207;SDS011;56321;47.662;8.878;2022-08-19T05:15:26;16.67;;;10.43;;
69207;SDS011;56321;47.662;8.878;2022-08-19T05:17:51;16.73;;;10.33;;
69207;SDS011;56321;47.662;8.878;2022-08-19T05:20:37;17.17;;;10.70;;
69207;SDS011;56321;47.662;8.878;2022-08-19T05:23:21;16.97;;;11.00;;
69207;SDS011;56321;47.662;8.878;2022-08-19T05:25:47;17.23;;;10.82;;
69207;SDS011;56321;47.662;8.878;2022-08-19T05:28:12;16.50;;;10.67;;
69207;SDS011;56321;47.662;8.878;2022-08-19T05:30:37;17.00;;;11.00;;
69207;SDS011;56321;47.662;8.878;2022-08-19T05:33:03;18.57;;;12.17;;
69207;SDS011;56321;47.662;8.878;2022-08-19T05:35:28;19.13;;;11.40;;
69207;SDS011;56321;47.662;8.878;2022-08-19T05:37:54;18.80;;;12.13;;
69207;SDS011;56321;47.662;8.878;2022-08-19T05:40:19;17.93;;;11.33;;
69207;SDS011;56321;47.662;8.878;2022-08-19T05:42:45;17.80;;;11.30;;
69207;SDS011;56321;47.662;8.878;2022-08-19T05:45:10;16.55;;;10.73;;
69207;SDS011;56321;47.662;8.878;2022-08-19T05:47:36;17.00;;;10.60;;
69207;SDS011;56321;47.662;8.878;2022-08-19T05:50:02;17.83;;;11.43;;
69207;SDS011;56321;47.662;8.878;2022-08-19T05:52:28;16.70;;;10.32;;
69207;SDS011;56321;47.662;8.878;2022-08-19T05:54:55;16.38;;;10.63;;
69207;SDS011;56321;47.662;8.878;2022-08-19T05:57:20;19.33;;;11.03;;
69207;SDS011;56321;47.662;8.878;2022-08-19T05:59:45;16.20;;;10.27;;
69207;SDS011;56321;47.662;8.878;2022-08-19T06:02:13;17.98;;;10.85;;
69207;SDS011;56321;47.662;8.878;2022-08-19T06:04:39;17.00;;;10.65;;
69207;SDS011;56321;47.662;8.878;2022-08-19T06:07:07;19.37;;;11.63;;
69207;SDS011;56321;47.662;8.878;2022-08-19T06:09:32;18.20;;;11.13;;
69207;SDS011;56321;47.662;8.878;2022-08-19T06:11:58;16.97;;;11.17;;
69207;SDS011;56321;47.662;8.878;2022-08-19T06:14:26;17.88;;;11.75;;
69207;SDS011;56321;47.662;8.878;2022-08-19T06:16:54;17.73;;;10.60;;
69207;SDS011;56321;47.662;8.878;2022-08-19T06:19:20;17.38;;;10.73;;
69207;SDS011;56321;47.662;8.878;2022-08-19T06:21:48;16.02;;;9.55;;
69207;SDS011;56321;47.662;8.878;2022-08-19T06:24:17;18.07;;;10.70;;
69207;SDS011;56321;47.662;8.878;2022-08-19T06:26:46;18.10;;;11.68;;
69207;SDS011;56321;47.662;8.878;2022-08-19T06:29:14;17.55;;;11.20;;
69207;SDS011;56321;47.662;8.878;2022-08-19T06:31:51;15.75;;;10.13;;
69207;SDS011;56321;47.662;8.878;2022-08-19T06:34:18;16.50;;;10.20;;
69207;SDS011;56321;47.662;8.878;2022-08-19T06:36:45;15.83;;;10.43;;
69207;SDS011;56321;47.662;8.878;2022-08-19T06:39:14;16.90;;;10.15;;
69207;SDS011;56321;47.662;8.878;2022-08-19T06:41:43;16.70;;;10.18;;
69207;SDS011;56321;47.662;8.878;2022-08-19T06:44:11;15.07;;;9.90;;
69207;SDS011;56321;47.662;8.878;2022-08-19T06:46:38;15.48;;;10.05;;
69207;SDS011;56321;47.662;8.878;2022-08-19T06:49:05;17.35;;;11.30;;
69207;SDS011;56321;47.662;8.878;2022-08-19T06:51:31;16.52;;;10.30;;
69207;SDS011;56321;47.662;8.878;2022-08-19T06:53:57;16.10;;;10.65;;
69207;SDS011;56321;47.662;8.878;2022-08-19T06:56:24;15.80;;;10.70;;
69207;SDS011;56321;47.662;8.878;2022-08-19T06:58:59;17.60;;;10.82;;
69207;SDS011;56321;47.662;8.878;2022-08-19T07:01:26;14.60;;;9.57;;
69207;SDS011;56321;47.662;8.878;2022-08-19T07:03:51;15.77;;;10.30;;
69207;SDS011;56321;47.662;8.878;2022-08-19T07:06:17;14.50;;;9.63;;
69207;SDS011;56321;47.662;8.878;2022-08-19T07:08:44;16.77;;;10.02;;
69207;SDS011;56321;47.662;8.878;2022-08-19T07:11:12;14.95;;;10.30;;
69207;SDS011;56321;47.662;8.878;2022-08-19T07:13:39;15.32;;;10.35;;
69207;SDS011;56321;47.662;8.878;2022-08-19T07:16:09;17.15;;;9.90;;
69207;SDS011;56321;47.662;8.878;2022-08-19T07:18:37;17.23;;;11.30;;
69207;SDS011;56321;47.662;8.878;2022-08-19T07:21:07;16.52;;;11.05;;
69207;SDS011;56321;47.662;8.878;2022-08-19T07:23:34;14.90;;;9.68;;
69207;SDS011;56321;47.662;8.878;2022-08-19T07:26:12;16.23;;;10.97;;
69207;SDS011;56321;47.662;8.878;2022-08-19T07:28:46;16.17;;;10.77;;
69207;SDS011;56321;47.662;8.878;2022-08-19T07:31:13;14.98;;;9.52;;
69207;SDS011;56321;47.662;8.878;2022-08-19T07:33:41;15.63;;;9.88;;
69207;SDS011;56321;47.662;8.878;2022-08-19T07:36:08;15.77;;;10.50;;
69207;SDS011;56321;47.662;8.878;2022-08-19T07:38:36;14.50;;;10.05;;
69207;SDS011;56321;47.662;8.878;2022-08-19T07:41:03;14.93;;;10.50;;
69207;SDS011;56321;47.662;8.878;2022-08-19T07:43:28;16.37;;;10.63;;
69207;SDS011;56321;47.662;8.878;2022-08-19T07:45:54;15.35;;;9.80;;
69207;SDS011;56321;47.662;8.878;2022-08-19T07:48:25;16.50;;;11.33;;
69207;SDS011;56321;47.662;8.878;2022-08-19T07:50:53;15.98;;;10.40;;
69207;SDS011;56321;47.662;8.878;2022-08-19T07:53:19;15.85;;;10.80;;
69207;SDS011;56321;47.662;8.878;2022-08-19T07:55:48;15.13;;;10.18;;
69207;SDS011;56321;47.662;8.878;2022-08-19T07:58:14;14.77;;;9.70;;
69207;SDS011;56321;47.662;8.878;2022-08-19T08:00:43;14.98;;;10.27;;
69207;SDS011;56321;47.662;8.878;2022-08-19T08:03:10;15.88;;;10.38;;
69207;SDS011;56321;47.662;8.878;2022-08-19T08:05:36;15.07;;;9.40;;
69207;SDS011;56321;47.662;8.878;2022-08-19T08:08:20;14.25;;;9.23;;
69207;SDS011;56321;47.662;8.878;2022-08-19T08:11:04;15.82;;;10.25;;
69207;SDS011;56321;47.662;8.878;2022-08-19T08:13:31;16.20;;;10.40;;
69207;SDS011;56321;47.662;8.878;2022-08-19T08:15:58;15.40;;;9.88;;
69207;SDS011;56321;47.662;8.878;2022-08-19T08:18:23;15.27;;;10.10;;
69207;SDS011;56321;47.662;8.878;2022-08-19T08:20:49;16.48;;;10.55;;
69207;SDS011;56321;47.662;8.878;2022-08-19T08:23:15;14.83;;;9.67;;
69207;SDS011;56321;47.662;8.878;2022-08-19T08:25:50;16.90;;;10.55;;
69207;SDS011;56321;47.662;8.878;2022-08-19T08:28:17;15.52;;;10.00;;
69207;SDS011;56321;47.662;8.878;2022-08-19T08:30:44;17.10;;;11.10;;
69207;SDS011;56321;47.662;8.878;2022-08-19T08:33:12;17.63;;;10.90;;
69207;SDS011;56321;47.662;8.878;2022-08-19T08:35:38;15.93;;;10.43;;
69207;SDS011;56321;47.662;8.878;2022-08-19T08:38:06;14.95;;;9.82;;
69207;SDS011;56321;47.662;8.878;2022-08-19T08:40:48;16.73;;;10.70;;
69207;SDS011;56321;47.662;8.878;2022-08-19T08:45:56;14.98;;;9.90;;
69207;SDS011;56321;47.662;8.878;2022-08-19T08:48:44;16.00;;;10.48;;
69207;SDS011;56321;47.662;8.878;2022-08-19T08:51:22;16.30;;;10.33;;
69207;SDS011;56321;47.662;8.878;2022-08-19T08:53:52;16.92;;;10.23;;
69207;SDS011;56321;47.662;8.878;2022-08-19T08:56:19;15.23;;;9.65;;
69207;SDS011;56321;47.662;8.878;2022-08-19T08:58:46;14.88;;;10.05;;
69207;SDS011;56321;47.662;8.878;2022-08-19T09:01:12;17.33;;;11.20;;
69207;SDS011;56321;47.662;8.878;2022-08-19T09:03:38;16.00;;;9.93;;
69207;SDS011;56321;47.662;8.878;2022-08-19T09:06:21;15.98;;;10.25;;
69207;SDS011;56321;47.662;8.878;2022-08-19T09:09:11;16.43;;;10.33;;
69207;SDS011;56321;47.662;8.878;2022-08-19T09:12:00;16.35;;;10.57;;
69207;SDS011;56321;47.662;8.878;2022-08-19T09:16:59;16.17;;;10.30;;
69207;SDS011;56321;47.662;8.878;2022-08-19T09:19:28;17.05;;;10.75;;
69207;SDS011;56321;47.662;8.878;2022-08-19T09:21:54;15.47;;;9.53;;
69207;SDS011;56321;47.662;8.878;2022-08-19T09:24:19;15.63;;;10.18;;
69207;SDS011;56321;47.662;8.878;2022-08-19T09:26:45;16.27;;;9.83;;
69207;SDS011;56321;47.662;8.878;2022-08-19T09:29:11;15.02;;;9.32;;
69207;SDS011;56321;47.662;8.878;2022-08-19T09:31:37;15.90;;;10.23;;
69207;SDS011;56321;47.662;8.878;2022-08-19T09:34:03;15.93;;;10.23;;
69207;SDS011;56321;47.662;8.878;2022-08-19T09:36:31;14.88;;;9.52;;
69207;SDS011;56321;47.662;8.878;2022-08-19T09:38:58;17.03;;;11.07;;
69207;SDS011;56321;47.662;8.878;2022-08-19T09:41:25;16.88;;;10.50;;
69207;SDS011;56321;47.662;8.878;2022-08-19T09:43:52;15.60;;;10.02;;
69207;SDS011;56321;47.662;8.878;2022-08-19T09:46:20;16.20;;;10.20;;
69207;SDS011;56321;47.662;8.878;2022-08-19T09:48:46;14.82;;;9.45;;
69207;SDS011;56321;47.662;8.878;2022-08-19T09:51:18;16.77;;;11.02;;
69207;SDS011;56321;47.662;8.878;2022-08-19T09:53:46;17.80;;;11.25;;
69207;SDS011;56321;47.662;8.878;2022-08-19T09:56:14;14.95;;;9.98;;
69207;SDS011;56321;47.662;8.878;2022-08-19T09:58:41;15.53;;;9.50;;
69207;SDS011;56321;47.662;8.878;2022-08-19T10:01:07;16.42;;;10.50;;
69207;SDS011;56321;47.662;8.878;2022-08-19T10:03:33;15.82;;;9.80;;
69207;SDS011;56321;47.662;8.878;2022-08-19T10:06:01;15.80;;;9.80;;
69207;SDS011;56321;47.662;8.878;2022-08-19T10:08:31;14.23;;;9.02;;
69207;SDS011;56321;47.662;8.878;2022-08-19T10:10:58;17.05;;;10.02;;
69207;SDS011;56321;47.662;8.878;2022-08-19T10:13:25;16.15;;;10.27;;
69207;SDS011;56321;47.662;8.878;2022-08-19T10:15:53;15.85;;;10.38;;
69207;SDS011;56321;47.662;8.878;2022-08-19T10:18:20;15.20;;;9.50;;
69207;SDS011;56321;47.662;8.878;2022-08-19T10:20:47;14.27;;;8.75;;
69207;SDS011;56321;47.662;8.878;2022-08-19T10:23:14;18.15;;;11.32;;
69207;SDS011;56321;47.662;8.878;2022-08-19T10:25:40;15.82;;;9.77;;
69207;SDS011;56321;47.662;8.878;2022-08-19T10:28:07;15.57;;;10.23;;
69207;SDS011;56321;47.662;8.878;2022-08-19T10:30:35;17.55;;;10.90;;
69207;SDS011;56321;47.662;8.878;2022-08-19T10:33:00;15.82;;;9.65;;
69207;SDS011;56321;47.662;8.878;2022-08-19T10:35:26;18.50;;;11.27;;
69207;SDS011;56321;47.662;8.878;2022-08-19T10:37:52;14.15;;;9.02;;
69207;SDS011;56321;47.662;8.878;2022-08-19T10:40:18;14.07;;;8.83;;
69207;SDS011;56321;47.662;8.878;2022-08-19T10:42:43;13.43;;;8.38;;
69207;SDS011;56321;47.662;8.878;2022-08-19T10:45:09;16.03;;;9.83;;
69207;SDS011;56321;47.662;8.878;2022-08-19T10:47:35;16.27;;;9.88;;
69207;SDS011;56321;47.662;8.878;2022-08-19T10:50:01;17.57;;;11.17;;
69207;SDS011;56321;47.662;8.878;2022-08-19T10:52:49;16.90;;;10.40;;
69207;SDS011;56321;47.662;8.878;2022-08-19T10:55:15;18.05;;;11.98;;
69207;SDS011;56321;47.662;8.878;2022-08-19T10:57:59;17.65;;;11.32;;
69207;SDS011;56321;47.662;8.878;2022-08-19T11:00:24;17.53;;;11.00;;
69207;SDS011;56321;47.662;8.878;2022-08-19T11:02:50;18.70;;;11.63;;
69207;SDS011;56321;47.662;8.878;2022-08-19T11:05:17;21.23;;;13.98;;
69207;SDS011;56321;47.662;8.878;2022-08-19T11:07:43;20.23;;;12.73;;
69207;SDS011;56321;47.662;8.878;2022-08-19T11:10:10;21.42;;;14.05;;
69207;SDS011;56321;47.662;8.878;2022-08-19T11:12:38;20.05;;;12.60;;
69207;SDS011;56321;47.662;8.878;2022-08-19T11:15:08;19.50;;;12.90;;
69207;SDS011;56321;47.662;8.878;2022-08-19T11:17:36;19.75;;;12.63;;
69207;SDS011;56321;47.662;8.878;2022-08-19T11:20:08;18.27;;;12.20;;
69207;SDS011;56321;47.662;8.878;2022-08-19T11:22:38;20.40;;;12.57;;
69207;SDS011;56321;47.662;8.878;2022-08-19T11:25:05;20.65;;;13.57;;
69207;SDS011;56321;47.662;8.878;2022-08-19T11:27:31;22.58;;;13.82;;
69207;SDS011;56321;47.662;8.878;2022-08-19T11:29:56;21.23;;;12.20;;
69207;SDS011;56321;47.662;8.878;2022-08-19T11:32:21;22.33;;;13.70;;
69207;SDS011;56321;47.662;8.878;2022-08-19T11:34:47;24.20;;;15.17;;
69207;SDS011;56321;47.662;8.878;2022-08-19T11:37:12;22.50;;;14.53;;
69207;SDS011;56321;47.662;8.878;2022-08-19T11:39:38;23.77;;;14.60;;
69207;SDS011;56321;47.662;8.878;2022-08-19T11:42:04;22.30;;;14.27;;
69207;SDS011;56321;47.662;8.878;2022-08-19T11:44:51;23.42;;;14.98;;
69207;SDS011;56321;47.662;8.878;2022-08-19T11:47:17;22.98;;;13.63;;
69207;SDS011;56321;47.662;8.878;2022-08-19T11:49:42;22.60;;;14.80;;
69207;SDS011;56321;47.662;8.878;2022-08-19T11:52:08;22.83;;;14.23;;
69207;SDS011;56321;47.662;8.878;2022-08-19T11:54:34;23.13;;;14.35;;
69207;SDS011;56321;47.662;8.878;2022-08-19T11:57:00;22.30;;;14.27;;
69207;SDS011;56321;47.662;8.878;2022-08-19T11:59:27;21.20;;;13.57;;
69207;SDS011;56321;47.662;8.878;2022-08-19T12:01:52;22.58;;;14.52;;
69207;SDS011;56321;47.662;8.878;2022-08-19T12:04:18;25.83;;;15.77;;
69207;SDS011;56321;47.662;8.878;2022-08-19T12:06:43;22.37;;;14.30;;
69207;SDS011;56321;47.662;8.878;2022-08-19T12:09:10;24.97;;;15.00;;
69207;SDS011;56321;47.662;8.878;2022-08-19T12:11:36;24.08;;;15.10;;
69207;SDS011;56321;47.662;8.878;2022-08-19T12:14:03;21.20;;;13.73;;
69207;SDS011;56321;47.662;8.878;2022-08-19T12:16:30;25.33;;;16.23;;
69207;SDS011;56321;47.662;8.878;2022-08-19T12:18:57;23.23;;;15.98;;
69207;SDS011;56321;47.662;8.878;2022-08-19T12:21:28;25.47;;;16.27;;
69207;SDS011;56321;47.662;8.878;2022-08-19T12:23:54;23.33;;;14.55;;
69207;SDS011;56321;47.662;8.878;2022-08-19T12:26:20;24.30;;;15.07;;
69207;SDS011;56321;47.662;8.878;2022-08-19T12:28:46;22.85;;;15.23;;
69207;SDS011;56321;47.662;8.878;2022-08-19T12:31:13;23.83;;;16.20;;
69207;SDS011;56321;47.662;8.878;2022-08-19T12:33:39;23.03;;;15.43;;
69207;SDS011;56321;47.662;8.878;2022-08-19T12:36:06;25.02;;;16.45;;
69207;SDS011;56321;47.662;8.878;2022-08-19T12:38:33;25.08;;;16.30;;
69207;SDS011;56321;47.662;8.878;2022-08-19T12:41:02;23.73;;;15.27;;
69207;SDS011;56321;47.662;8.878;2022-08-19T12:43:31;23.70;;;15.27;;
69207;SDS011;56321;47.662;8.878;2022-08-19T12:45:57;25.43;;;16.63;;
69207;SDS011;56321;47.662;8.878;2022-08-19T12:48:22;22.55;;;15.05;;
69207;SDS011;56321;47.662;8.878;2022-08-19T12:50:48;26.43;;;16.63;;
69207;SDS011;56321;47.662;8.878;2022-08-19T12:53:13;22.93;;;14.77;;
69207;SDS011;56321;47.662;8.878;2022-08-19T12:55:40;23.17;;;15.35;;
69207;SDS011;56321;47.662;8.878;2022-08-19T12:58:05;24.63;;;16.08;;
69207;SDS011;56321;47.662;8.878;2022-08-19T13:00:31;26.10;;;16.93;;
69207;SDS011;56321;47.662;8.878;2022-08-19T13:02:57;23.25;;;15.35;;
69207;SDS011;56321;47.662;8.878;2022-08-19T13:05:25;27.33;;;17.02;;
69207;SDS011;56321;47.662;8.878;2022-08-19T13:07:53;24.67;;;16.47;;
69207;SDS011;56321;47.662;8.878;2022-08-19T13:10:22;25.98;;;17.35;;
69207;SDS011;56321;47.662;8.878;2022-08-19T13:12:50;25.42;;;17.02;;
69207;SDS011;56321;47.662;8.878;2022-08-19T13:15:17;23.52;;;16.25;;
69207;SDS011;56321;47.662;8.878;2022-08-19T13:17:45;27.77;;;18.33;;
69207;SDS011;56321;47.662;8.878;2022-08-19T13:20:13;25.03;;;16.53;;
69207;SDS011;56321;47.662;8.878;2022-08-19T13:22:41;25.65;;;17.10;;
69207;SDS011;56321;47.662;8.878;2022-08-19T13:25:07;23.40;;;15.38;;
69207;SDS011;56321;47.662;8.878;2022-08-19T13:27:33;24.88;;;17.05;;
69207;SDS011;56321;47.662;8.878;2022-08-19T13:29:59;25.17;;;16.97;;
69207;SDS011;56321;47.662;8.878;2022-08-19T13:32:44;25.08;;;17.23;;
69207;SDS011;56321;47.662;8.878;2022-08-19T13:35:28;27.80;;;18.05;;
69207;SDS011;56321;47.662;8.878;2022-08-19T13:37:54;24.77;;;16.73;;
69207;SDS011;56321;47.662;8.878;2022-08-19T13:40:20;27.50;;;17.23;;
69207;SDS011;56321;47.662;8.878;2022-08-19T13:42:51;26.23;;;17.02;;
69207;SDS011;56321;47.662;8.878;2022-08-19T13:45:18;27.20;;;18.33;;
69207;SDS011;56321;47.662;8.878;2022-08-19T13:47:47;28.55;;;18.98;;
69207;SDS011;56321;47.662;8.878;2022-08-19T13:50:18;25.77;;;17.03;;
69207;SDS011;56321;47.662;8.878;2022-08-19T13:52:47;26.17;;;17.63;;
69207;SDS011;56321;47.662;8.878;2022-08-19T13:55:13;26.67;;;18.00;;
69207;SDS011;56321;47.662;8.878;2022-08-19T13:57:40;26.02;;;17.75;;
69207;SDS011;56321;47.662;8.878;2022-08-19T14:00:11;28.08;;;19.17;;
69207;SDS011;56321;47.662;8.878;2022-08-19T14:02:39;29.63;;;19.33;;
69207;SDS011;56321;47.662;8.878;2022-08-19T14:05:08;29.20;;;19.80;;
69207;SDS011;56321;47.662;8.878;2022-08-19T14:07:35;26.50;;;17.67;;
69207;SDS011;56321;47.662;8.878;2022-08-19T14:10:01;27.98;;;18.40;;
69207;SDS011;56321;47.662;8.878;2022-08-19T14:12:28;27.30;;;18.55;;
69207;SDS011;56321;47.662;8.878;2022-08-19T14:14:53;26.30;;;18.23;;
69207;SDS011;56321;47.662;8.878;2022-08-19T14:17:19;27.23;;;18.67;;
69207;SDS011;56321;47.662;8.878;2022-08-19T14:19:44;29.60;;;19.53;;
69207;SDS011;56321;47.662;8.878;2022-08-19T14:22:10;28.50;;;19.30;;
69207;SDS011;56321;47.662;8.878;2022-08-19T14:24:37;28.80;;;19.47;;
69207;SDS011;56321;47.662;8.878;2022-08-19T14:27:04;26.35;;;18.17;;
69207;SDS011;56321;47.662;8.878;2022-08-19T14:29:30;28.63;;;19.27;;
69207;SDS011;56321;47.662;8.878;2022-08-19T14:31:55;25.80;;;17.40;;
69207;SDS011;56321;47.662;8.878;2022-08-19T14:34:24;26.37;;;18.20;;